sensor_id;sensor_type;location;lat;lon;timestamp;P1;durP1;ratioP1;P2;durP2;ratioP2
30147;SDS011;16960;49.404;8.248;2024-02-23T00:00:17;0.80;;;0.47;;
30147;SDS011;16960;49.404;8.248;2024-02-23T00:02:44;2.40;;;0.40;;
30147;SDS011;16960;49.404;8.248;2024-02-23T00:05:11;1.17;;;0.40;;
30147;SDS011;16960;49.404;8.248;2024-02-23T00:07:39;0.63;;;0.30;;
30147;SDS011;16960;49.404;8.248;2024-02-23T00:10:06;1.47;;;0.53;;
30147;SDS011;16960;49.404;8.248;2024-02-23T00:12:34;1.70;;;0.50;;
30147;SDS011;16960;49.404;8.248;2024-02-23T00:15:01;0.40;;;0.30;;
30147;SDS011;16960;49.404;8.248;2024-02-23T00:17:28;1.33;;;0.40;;
30147;SDS011;16960;49.404;8.248;2024-02-23T00:19:54;1.23;;;0.50;;
30147;SDS011;16960;49.404;8.248;2024-02-23T00:22:21;1.50;;;0.40;;
30147;SDS011;16960;49.404;8.248;2024-02-23T00:24:52;1.00;;;0.33;;
30147;SDS011;16960;49.404;8.248;2024-02-23T00:27:19;1.10;;;0.43;;
30147;SDS011;16960;49.404;8.248;2024-02-23T00:29:45;1.17;;;0.63;;
30147;SDS011;16960;49.404;8.248;2024-02-23T00:32:12;1.13;;;0.50;;
30147;SDS011;16960;49.404;8.248;2024-02-23T00:34:39;0.80;;;0.50;;
30147;SDS011;16960;49.404;8.248;2024-02-23T00:37:06;1.37;;;0.50;;
30147;SDS011;16960;49.404;8.248;2024-02-23T00:39:34;0.80;;;0.40;;
30147;SDS011;16960;49.404;8.248;2024-02-23T00:42:03;0.70;;;0.40;;
30147;SDS011;16960;49.404;8.248;2024-02-23T00:44:30;0.60;;;0.40;;
30147;SDS011;16960;49.404;8.248;2024-02-23T00:46:57;0.60;;;0.60;;
30147;SDS011;16960;49.404;8.248;2024-02-23T00:49:26;1.40;;;0.53;;
30147;SDS011;16960;49.404;8.248;2024-02-23T00:51:53;2.37;;;0.50;;
30147;SDS011;16960;49.404;8.248;2024-02-23T00:54:20;1.20;;;0.40;;
30147;SDS011;16960;49.404;8.248;2024-02-23T00:56:47;1.30;;;0.53;;
30147;SDS011;16960;49.404;8.248;2024-02-23T00:59:16;0.40;;;0.30;;
30147;SDS011;16960;49.404;8.248;2024-02-23T01:01:43;2.43;;;0.40;;
30147;SDS011;16960;49.404;8.248;2024-02-23T01:04:09;1.50;;;0.53;;
30147;SDS011;16960;49.404;8.248;2024-02-23T01:06:36;1.53;;;0.50;;
30147;SDS011;16960;49.404;8.248;2024-02-23T01:09:03;1.07;;;0.50;;
30147;SDS011;16960;49.404;8.248;2024-02-23T01:11:30;2.13;;;0.83;;
30147;SDS011;16960;49.404;8.248;2024-02-23T01:13:57;1.00;;;0.63;;
30147;SDS011;16960;49.404;8.248;2024-02-23T01:16:26;0.90;;;0.57;;
30147;SDS011;16960;49.404;8.248;2024-02-23T01:18:53;0.90;;;0.60;;
30147;SDS011;16960;49.404;8.248;2024-02-23T01:21:20;1.63;;;0.50;;
30147;SDS011;16960;49.404;8.248;2024-02-23T01:23:46;1.20;;;0.70;;
30147;SDS011;16960;49.404;8.248;2024-02-23T01:26:13;1.03;;;0.47;;
30147;SDS011;16960;49.404;8.248;2024-02-23T01:28:40;1.50;;;0.60;;
30147;SDS011;16960;49.404;8.248;2024-02-23T01:31:08;1.03;;;0.60;;
30147;SDS011;16960;49.404;8.248;2024-02-23T01:33:38;1.20;;;0.43;;
30147;SDS011;16960;49.404;8.248;2024-02-23T01:36:05;1.70;;;0.40;;
30147;SDS011;16960;49.404;8.248;2024-02-23T01:38:32;1.10;;;0.63;;
30147;SDS011;16960;49.404;8.248;2024-02-23T01:41:00;0.77;;;0.50;;
30147;SDS011;16960;49.404;8.248;2024-02-23T01:43:27;1.43;;;0.57;;
30147;SDS011;16960;49.404;8.248;2024-02-23T01:45:54;2.63;;;0.50;;
30147;SDS011;16960;49.404;8.248;2024-02-23T01:48:21;0.90;;;0.30;;
30147;SDS011;16960;49.404;8.248;2024-02-23T01:50:50;3.37;;;0.50;;
30147;SDS011;16960;49.404;8.248;2024-02-23T01:53:17;0.63;;;0.47;;
30147;SDS011;16960;49.404;8.248;2024-02-23T01:55:45;0.87;;;0.40;;
30147;SDS011;16960;49.404;8.248;2024-02-23T01:58:13;1.93;;;0.60;;
30147;SDS011;16960;49.404;8.248;2024-02-23T02:00:41;1.10;;;0.40;;
30147;SDS011;16960;49.404;8.248;2024-02-23T02:03:07;0.60;;;0.30;;
30147;SDS011;16960;49.404;8.248;2024-02-23T02:05:35;0.90;;;0.50;;
30147;SDS011;16960;49.404;8.248;2024-02-23T02:08:04;0.80;;;0.40;;
30147;SDS011;16960;49.404;8.248;2024-02-23T02:10:31;1.20;;;0.47;;
30147;SDS011;16960;49.404;8.248;2024-02-23T02:13:01;1.30;;;0.30;;
30147;SDS011;16960;49.404;8.248;2024-02-23T02:15:29;0.60;;;0.30;;
30147;SDS011;16960;49.404;8.248;2024-02-23T02:17:56;0.67;;;0.37;;
30147;SDS011;16960;49.404;8.248;2024-02-23T02:20:24;0.90;;;0.40;;
30147;SDS011;16960;49.404;8.248;2024-02-23T02:22:51;0.57;;;0.30;;
30147;SDS011;16960;49.404;8.248;2024-02-23T02:25:19;1.50;;;0.60;;
30147;SDS011;16960;49.404;8.248;2024-02-23T02:27:46;0.73;;;0.30;;
30147;SDS011;16960;49.404;8.248;2024-02-23T02:30:13;1.83;;;0.50;;
30147;SDS011;16960;49.404;8.248;2024-02-23T02:32:41;1.37;;;0.40;;
30147;SDS011;16960;49.404;8.248;2024-02-23T02:35:10;0.77;;;0.33;;
30147;SDS011;16960;49.404;8.248;2024-02-23T02:37:37;1.30;;;0.60;;
30147;SDS011;16960;49.404;8.248;2024-02-23T02:40:05;0.80;;;0.40;;
30147;SDS011;16960;49.404;8.248;2024-02-23T02:42:34;0.80;;;0.30;;
30147;SDS011;16960;49.404;8.248;2024-02-23T02:45:01;0.83;;;0.47;;
30147;SDS011;16960;49.404;8.248;2024-02-23T02:47:28;1.07;;;0.40;;
30147;SDS011;16960;49.404;8.248;2024-02-23T02:49:55;0.60;;;0.30;;
30147;SDS011;16960;49.404;8.248;2024-02-23T02:52:22;0.67;;;0.30;;
30147;SDS011;16960;49.404;8.248;2024-02-23T02:54:50;1.03;;;0.50;;
30147;SDS011;16960;49.404;8.248;2024-02-23T02:57:17;1.70;;;0.40;;
30147;SDS011;16960;49.404;8.248;2024-02-23T02:59:45;0.50;;;0.30;;
30147;SDS011;16960;49.404;8.248;2024-02-23T03:02:12;0.40;;;0.30;;
30147;SDS011;16960;49.404;8.248;2024-02-23T03:04:39;0.50;;;0.37;;
30147;SDS011;16960;49.404;8.248;2024-02-23T03:07:12;0.57;;;0.37;;
30147;SDS011;16960;49.404;8.248;2024-02-23T03:09:39;0.97;;;0.40;;
30147;SDS011;16960;49.404;8.248;2024-02-23T03:12:06;1.43;;;0.40;;
30147;SDS011;16960;49.404;8.248;2024-02-23T03:14:33;1.17;;;0.30;;
30147;SDS011;16960;49.404;8.248;2024-02-23T03:17:02;0.70;;;0.30;;
30147;SDS011;16960;49.404;8.248;2024-02-23T03:19:29;0.97;;;0.40;;
30147;SDS011;16960;49.404;8.248;2024-02-23T03:21:57;0.40;;;0.30;;
30147;SDS011;16960;49.404;8.248;2024-02-23T03:24:24;1.20;;;0.40;;
30147;SDS011;16960;49.404;8.248;2024-02-23T03:26:51;0.80;;;0.50;;
30147;SDS011;16960;49.404;8.248;2024-02-23T03:29:18;1.13;;;0.50;;
30147;SDS011;16960;49.404;8.248;2024-02-23T03:31:45;1.10;;;0.50;;
30147;SDS011;16960;49.404;8.248;2024-02-23T03:34:13;1.23;;;0.70;;
30147;SDS011;16960;49.404;8.248;2024-02-23T03:36:40;1.17;;;0.60;;
30147;SDS011;16960;49.404;8.248;2024-02-23T03:39:07;1.03;;;0.40;;
30147;SDS011;16960;49.404;8.248;2024-02-23T03:41:34;0.50;;;0.30;;
30147;SDS011;16960;49.404;8.248;2024-02-23T03:44:01;0.50;;;0.30;;
30147;SDS011;16960;49.404;8.248;2024-02-23T03:46:27;0.43;;;0.30;;
30147;SDS011;16960;49.404;8.248;2024-02-23T03:48:54;1.00;;;0.40;;
30147;SDS011;16960;49.404;8.248;2024-02-23T03:51:24;0.40;;;0.20;;
30147;SDS011;16960;49.404;8.248;2024-02-23T03:53:50;0.83;;;0.43;;
30147;SDS011;16960;49.404;8.248;2024-02-23T03:56:17;0.87;;;0.33;;
30147;SDS011;16960;49.404;8.248;2024-02-23T03:58:44;0.60;;;0.40;;
30147;SDS011;16960;49.404;8.248;2024-02-23T04:01:11;0.67;;;0.37;;
30147;SDS011;16960;49.404;8.248;2024-02-23T04:03:38;0.83;;;0.47;;
30147;SDS011;16960;49.404;8.248;2024-02-23T04:06:05;1.00;;;0.40;;
30147;SDS011;16960;49.404;8.248;2024-02-23T04:08:34;0.70;;;0.50;;
30147;SDS011;16960;49.404;8.248;2024-02-23T04:11:00;0.50;;;0.30;;
30147;SDS011;16960;49.404;8.248;2024-02-23T04:13:27;1.33;;;0.47;;
30147;SDS011;16960;49.404;8.248;2024-02-23T04:15:54;0.40;;;0.20;;
30147;SDS011;16960;49.404;8.248;2024-02-23T04:18:22;1.07;;;0.43;;
30147;SDS011;16960;49.404;8.248;2024-02-23T04:20:49;0.60;;;0.30;;
30147;SDS011;16960;49.404;8.248;2024-02-23T04:23:16;0.53;;;0.40;;
30147;SDS011;16960;49.404;8.248;2024-02-23T04:25:44;0.50;;;0.30;;
30147;SDS011;16960;49.404;8.248;2024-02-23T04:28:11;0.60;;;0.40;;
30147;SDS011;16960;49.404;8.248;2024-02-23T04:30:38;0.70;;;0.30;;
30147;SDS011;16960;49.404;8.248;2024-02-23T04:33:05;0.60;;;0.33;;
30147;SDS011;16960;49.404;8.248;2024-02-23T04:35:32;0.90;;;0.40;;
30147;SDS011;16960;49.404;8.248;2024-02-23T04:37:59;0.97;;;0.40;;
30147;SDS011;16960;49.404;8.248;2024-02-23T04:40:25;1.50;;;0.50;;
30147;SDS011;16960;49.404;8.248;2024-02-23T04:42:54;1.00;;;0.50;;
30147;SDS011;16960;49.404;8.248;2024-02-23T04:45:21;1.07;;;0.30;;
30147;SDS011;16960;49.404;8.248;2024-02-23T04:47:48;0.70;;;0.30;;
30147;SDS011;16960;49.404;8.248;2024-02-23T04:50:15;2.23;;;0.40;;
30147;SDS011;16960;49.404;8.248;2024-02-23T04:52:41;0.90;;;0.53;;
30147;SDS011;16960;49.404;8.248;2024-02-23T04:55:08;1.00;;;0.50;;
30147;SDS011;16960;49.404;8.248;2024-02-23T04:57:36;0.60;;;0.50;;
30147;SDS011;16960;49.404;8.248;2024-02-23T05:00:05;0.83;;;0.33;;
30147;SDS011;16960;49.404;8.248;2024-02-23T05:02:33;1.37;;;0.53;;
30147;SDS011;16960;49.404;8.248;2024-02-23T05:05:00;0.97;;;0.30;;
30147;SDS011;16960;49.404;8.248;2024-02-23T05:07:29;1.00;;;0.70;;
30147;SDS011;16960;49.404;8.248;2024-02-23T05:09:56;0.47;;;0.23;;
30147;SDS011;16960;49.404;8.248;2024-02-23T05:12:23;0.63;;;0.57;;
30147;SDS011;16960;49.404;8.248;2024-02-23T05:14:50;0.80;;;0.33;;
30147;SDS011;16960;49.404;8.248;2024-02-23T05:17:18;0.83;;;0.30;;
30147;SDS011;16960;49.404;8.248;2024-02-23T05:19:45;0.90;;;0.60;;
30147;SDS011;16960;49.404;8.248;2024-02-23T05:22:12;1.10;;;0.57;;
30147;SDS011;16960;49.404;8.248;2024-02-23T05:24:39;0.50;;;0.30;;
30147;SDS011;16960;49.404;8.248;2024-02-23T05:27:06;1.00;;;0.47;;
30147;SDS011;16960;49.404;8.248;2024-02-23T05:29:33;2.73;;;0.60;;
30147;SDS011;16960;49.404;8.248;2024-02-23T05:32:00;1.20;;;0.50;;
30147;SDS011;16960;49.404;8.248;2024-02-23T05:34:28;0.50;;;0.30;;
30147;SDS011;16960;49.404;8.248;2024-02-23T05:36:55;1.10;;;0.50;;
30147;SDS011;16960;49.404;8.248;2024-02-23T05:39:22;2.83;;;0.57;;
30147;SDS011;16960;49.404;8.248;2024-02-23T05:41:49;1.53;;;0.40;;
30147;SDS011;16960;49.404;8.248;2024-02-23T05:44:16;1.80;;;0.47;;
30147;SDS011;16960;49.404;8.248;2024-02-23T05:46:43;0.90;;;0.53;;
30147;SDS011;16960;49.404;8.248;2024-02-23T05:49:10;0.63;;;0.37;;
30147;SDS011;16960;49.404;8.248;2024-02-23T05:51:39;0.60;;;0.40;;
30147;SDS011;16960;49.404;8.248;2024-02-23T05:54:06;1.60;;;0.60;;
30147;SDS011;16960;49.404;8.248;2024-02-23T05:56:34;0.80;;;0.50;;
30147;SDS011;16960;49.404;8.248;2024-02-23T05:59:02;0.87;;;0.43;;
30147;SDS011;16960;49.404;8.248;2024-02-23T06:01:29;0.60;;;0.60;;
30147;SDS011;16960;49.404;8.248;2024-02-23T06:03:56;0.60;;;0.40;;
30147;SDS011;16960;49.404;8.248;2024-02-23T06:06:23;0.67;;;0.30;;
30147;SDS011;16960;49.404;8.248;2024-02-23T06:08:51;0.67;;;0.50;;
30147;SDS011;16960;49.404;8.248;2024-02-23T06:11:18;1.77;;;0.47;;
30147;SDS011;16960;49.404;8.248;2024-02-23T06:13:45;2.30;;;0.50;;
30147;SDS011;16960;49.404;8.248;2024-02-23T06:16:12;0.70;;;0.40;;
30147;SDS011;16960;49.404;8.248;2024-02-23T06:18:39;0.67;;;0.40;;
30147;SDS011;16960;49.404;8.248;2024-02-23T06:21:13;1.73;;;0.60;;
30147;SDS011;16960;49.404;8.248;2024-02-23T06:23:40;1.13;;;0.60;;
30147;SDS011;16960;49.404;8.248;2024-02-23T06:26:09;1.90;;;0.50;;
30147;SDS011;16960;49.404;8.248;2024-02-23T06:28:36;6.33;;;0.60;;
30147;SDS011;16960;49.404;8.248;2024-02-23T06:31:06;2.10;;;0.40;;
30147;SDS011;16960;49.404;8.248;2024-02-23T06:33:34;0.50;;;0.40;;
30147;SDS011;16960;49.404;8.248;2024-02-23T06:36:01;1.73;;;0.43;;
30147;SDS011;16960;49.404;8.248;2024-02-23T06:38:28;1.47;;;0.73;;
30147;SDS011;16960;49.404;8.248;2024-02-23T06:40:55;0.73;;;0.30;;
30147;SDS011;16960;49.404;8.248;2024-02-23T06:43:23;1.57;;;0.47;;
30147;SDS011;16960;49.404;8.248;2024-02-23T06:45:50;2.40;;;0.40;;
30147;SDS011;16960;49.404;8.248;2024-02-23T06:48:17;1.00;;;0.50;;
30147;SDS011;16960;49.404;8.248;2024-02-23T06:50:45;0.70;;;0.50;;
30147;SDS011;16960;49.404;8.248;2024-02-23T06:53:12;0.87;;;0.43;;
30147;SDS011;16960;49.404;8.248;2024-02-23T06:55:39;5.30;;;0.57;;
30147;SDS011;16960;49.404;8.248;2024-02-23T06:58:06;0.90;;;0.53;;
30147;SDS011;16960;49.404;8.248;2024-02-23T07:00:36;2.20;;;0.50;;
30147;SDS011;16960;49.404;8.248;2024-02-23T07:03:04;1.63;;;0.50;;
30147;SDS011;16960;49.404;8.248;2024-02-23T07:05:31;2.10;;;0.60;;
30147;SDS011;16960;49.404;8.248;2024-02-23T07:07:58;1.00;;;0.73;;
30147;SDS011;16960;49.404;8.248;2024-02-23T07:10:25;1.20;;;0.60;;
30147;SDS011;16960;49.404;8.248;2024-02-23T07:12:52;1.40;;;0.80;;
30147;SDS011;16960;49.404;8.248;2024-02-23T07:15:20;2.67;;;0.93;;
30147;SDS011;16960;49.404;8.248;2024-02-23T07:17:49;2.80;;;0.90;;
30147;SDS011;16960;49.404;8.248;2024-02-23T07:20:16;1.70;;;0.97;;
30147;SDS011;16960;49.404;8.248;2024-02-23T07:22:43;2.17;;;0.80;;
30147;SDS011;16960;49.404;8.248;2024-02-23T07:25:11;1.07;;;0.70;;
30147;SDS011;16960;49.404;8.248;2024-02-23T07:27:38;1.57;;;0.90;;
30147;SDS011;16960;49.404;8.248;2024-02-23T07:30:05;1.53;;;0.80;;
30147;SDS011;16960;49.404;8.248;2024-02-23T07:32:33;1.50;;;0.80;;
30147;SDS011;16960;49.404;8.248;2024-02-23T07:35:01;2.50;;;1.13;;
30147;SDS011;16960;49.404;8.248;2024-02-23T07:37:29;3.13;;;1.00;;
30147;SDS011;16960;49.404;8.248;2024-02-23T07:39:56;1.00;;;0.70;;
30147;SDS011;16960;49.404;8.248;2024-02-23T07:42:23;4.60;;;1.33;;
30147;SDS011;16960;49.404;8.248;2024-02-23T07:44:50;2.10;;;0.67;;
30147;SDS011;16960;49.404;8.248;2024-02-23T07:47:18;2.20;;;0.93;;
30147;SDS011;16960;49.404;8.248;2024-02-23T07:49:44;2.70;;;0.90;;
30147;SDS011;16960;49.404;8.248;2024-02-23T07:52:13;1.60;;;0.83;;
30147;SDS011;16960;49.404;8.248;2024-02-23T07:54:40;1.90;;;1.07;;
30147;SDS011;16960;49.404;8.248;2024-02-23T07:57:07;2.23;;;0.90;;
30147;SDS011;16960;49.404;8.248;2024-02-23T07:59:34;2.70;;;0.80;;
30147;SDS011;16960;49.404;8.248;2024-02-23T08:02:00;1.60;;;0.73;;
30147;SDS011;16960;49.404;8.248;2024-02-23T08:04:27;1.87;;;0.90;;
30147;SDS011;16960;49.404;8.248;2024-02-23T08:06:54;1.03;;;0.53;;
30147;SDS011;16960;49.404;8.248;2024-02-23T08:09:23;3.80;;;1.00;;
30147;SDS011;16960;49.404;8.248;2024-02-23T08:11:50;2.83;;;0.80;;
30147;SDS011;16960;49.404;8.248;2024-02-23T08:14:16;1.13;;;0.60;;
30147;SDS011;16960;49.404;8.248;2024-02-23T08:16:43;3.20;;;0.90;;
30147;SDS011;16960;49.404;8.248;2024-02-23T08:19:10;2.50;;;0.80;;
30147;SDS011;16960;49.404;8.248;2024-02-23T08:21:37;3.47;;;0.80;;
30147;SDS011;16960;49.404;8.248;2024-02-23T08:24:06;0.90;;;0.70;;
30147;SDS011;16960;49.404;8.248;2024-02-23T08:26:34;2.13;;;0.80;;
30147;SDS011;16960;49.404;8.248;2024-02-23T08:29:03;2.43;;;0.80;;
30147;SDS011;16960;49.404;8.248;2024-02-23T08:31:30;1.50;;;1.00;;
30147;SDS011;16960;49.404;8.248;2024-02-23T08:33:57;1.80;;;1.00;;
30147;SDS011;16960;49.404;8.248;2024-02-23T08:36:24;1.90;;;0.87;;
30147;SDS011;16960;49.404;8.248;2024-02-23T08:38:51;1.90;;;1.37;;
30147;SDS011;16960;49.404;8.248;2024-02-23T08:41:18;2.00;;;0.90;;
30147;SDS011;16960;49.404;8.248;2024-02-23T08:43:46;2.70;;;1.03;;
30147;SDS011;16960;49.404;8.248;2024-02-23T08:46:15;1.97;;;1.10;;
30147;SDS011;16960;49.404;8.248;2024-02-23T08:48:41;1.20;;;0.90;;
30147;SDS011;16960;49.404;8.248;2024-02-23T08:51:08;3.17;;;1.00;;
30147;SDS011;16960;49.404;8.248;2024-02-23T08:53:36;2.43;;;0.90;;
30147;SDS011;16960;49.404;8.248;2024-02-23T08:56:03;1.70;;;1.07;;
30147;SDS011;16960;49.404;8.248;2024-02-23T08:58:32;3.13;;;1.47;;
30147;SDS011;16960;49.404;8.248;2024-02-23T09:01:00;2.60;;;1.00;;
30147;SDS011;16960;49.404;8.248;2024-02-23T09:03:29;4.47;;;1.03;;
30147;SDS011;16960;49.404;8.248;2024-02-23T09:05:56;1.53;;;0.70;;
30147;SDS011;16960;49.404;8.248;2024-02-23T09:08:23;1.40;;;0.77;;
30147;SDS011;16960;49.404;8.248;2024-02-23T09:10:50;2.40;;;1.10;;
30147;SDS011;16960;49.404;8.248;2024-02-23T09:13:17;1.73;;;1.03;;
30147;SDS011;16960;49.404;8.248;2024-02-23T09:15:44;4.70;;;1.30;;
30147;SDS011;16960;49.404;8.248;2024-02-23T09:18:12;1.13;;;0.80;;
30147;SDS011;16960;49.404;8.248;2024-02-23T09:20:39;2.70;;;1.07;;
30147;SDS011;16960;49.404;8.248;2024-02-23T09:23:06;1.90;;;1.00;;
30147;SDS011;16960;49.404;8.248;2024-02-23T09:25:34;1.07;;;0.80;;
30147;SDS011;16960;49.404;8.248;2024-02-23T09:28:01;1.83;;;0.90;;
30147;SDS011;16960;49.404;8.248;2024-02-23T09:30:28;3.17;;;1.07;;
30147;SDS011;16960;49.404;8.248;2024-02-23T09:32:55;2.10;;;0.90;;
30147;SDS011;16960;49.404;8.248;2024-02-23T09:35:23;4.90;;;0.97;;
30147;SDS011;16960;49.404;8.248;2024-02-23T09:37:50;2.30;;;1.07;;
30147;SDS011;16960;49.404;8.248;2024-02-23T09:40:17;2.80;;;1.07;;
30147;SDS011;16960;49.404;8.248;2024-02-23T09:42:47;1.00;;;0.60;;
30147;SDS011;16960;49.404;8.248;2024-02-23T09:45:20;1.73;;;0.83;;
30147;SDS011;16960;49.404;8.248;2024-02-23T09:47:48;3.53;;;1.33;;
30147;SDS011;16960;49.404;8.248;2024-02-23T09:50:15;1.73;;;0.90;;
30147;SDS011;16960;49.404;8.248;2024-02-23T09:52:47;2.33;;;1.07;;
30147;SDS011;16960;49.404;8.248;2024-02-23T09:55:15;2.90;;;1.50;;
30147;SDS011;16960;49.404;8.248;2024-02-23T09:57:43;2.23;;;1.10;;
30147;SDS011;16960;49.404;8.248;2024-02-23T10:00:11;2.63;;;1.20;;
30147;SDS011;16960;49.404;8.248;2024-02-23T10:02:44;3.23;;;1.17;;
30147;SDS011;16960;49.404;8.248;2024-02-23T10:05:11;1.63;;;1.10;;
30147;SDS011;16960;49.404;8.248;2024-02-23T10:07:40;3.07;;;1.10;;
30147;SDS011;16960;49.404;8.248;2024-02-23T10:10:09;2.17;;;1.20;;
30147;SDS011;16960;49.404;8.248;2024-02-23T10:12:36;4.70;;;1.43;;
30147;SDS011;16960;49.404;8.248;2024-02-23T10:15:03;2.77;;;1.17;;
30147;SDS011;16960;49.404;8.248;2024-02-23T10:17:31;2.57;;;1.50;;
30147;SDS011;16960;49.404;8.248;2024-02-23T10:19:58;2.37;;;1.10;;
30147;SDS011;16960;49.404;8.248;2024-02-23T10:22:30;2.20;;;0.83;;
30147;SDS011;16960;49.404;8.248;2024-02-23T10:24:58;2.70;;;1.13;;
30147;SDS011;16960;49.404;8.248;2024-02-23T10:27:27;2.70;;;1.33;;
30147;SDS011;16960;49.404;8.248;2024-02-23T10:29:54;4.90;;;1.77;;
30147;SDS011;16960;49.404;8.248;2024-02-23T10:32:21;2.37;;;1.10;;
30147;SDS011;16960;49.404;8.248;2024-02-23T10:34:49;1.53;;;0.70;;
30147;SDS011;16960;49.404;8.248;2024-02-23T10:37:19;2.60;;;1.07;;
30147;SDS011;16960;49.404;8.248;2024-02-23T10:39:46;3.80;;;1.30;;
30147;SDS011;16960;49.404;8.248;2024-02-23T10:42:17;3.77;;;1.07;;
30147;SDS011;16960;49.404;8.248;2024-02-23T10:44:51;2.13;;;1.07;;
30147;SDS011;16960;49.404;8.248;2024-02-23T10:47:21;2.80;;;1.20;;
30147;SDS011;16960;49.404;8.248;2024-02-23T10:49:49;1.37;;;0.70;;
30147;SDS011;16960;49.404;8.248;2024-02-23T10:52:16;1.57;;;0.73;;
30147;SDS011;16960;49.404;8.248;2024-02-23T10:54:44;2.73;;;1.00;;
30147;SDS011;16960;49.404;8.248;2024-02-23T10:57:13;2.20;;;0.90;;
30147;SDS011;16960;49.404;8.248;2024-02-23T10:59:40;2.80;;;0.93;;
30147;SDS011;16960;49.404;8.248;2024-02-23T11:02:09;1.30;;;0.90;;
30147;SDS011;16960;49.404;8.248;2024-02-23T11:04:37;2.37;;;1.30;;
30147;SDS011;16960;49.404;8.248;2024-02-23T11:07:04;4.17;;;1.10;;
30147;SDS011;16960;49.404;8.248;2024-02-23T11:09:40;2.57;;;1.00;;
30147;SDS011;16960;49.404;8.248;2024-02-23T11:12:08;3.20;;;1.20;;
30147;SDS011;16960;49.404;8.248;2024-02-23T11:14:35;2.70;;;0.97;;
30147;SDS011;16960;49.404;8.248;2024-02-23T11:17:03;1.93;;;1.00;;
30147;SDS011;16960;49.404;8.248;2024-02-23T11:19:36;2.40;;;1.20;;
30147;SDS011;16960;49.404;8.248;2024-02-23T11:22:04;1.33;;;1.00;;
30147;SDS011;16960;49.404;8.248;2024-02-23T11:24:41;2.03;;;1.20;;
30147;SDS011;16960;49.404;8.248;2024-02-23T11:27:13;1.70;;;1.00;;
30147;SDS011;16960;49.404;8.248;2024-02-23T11:29:43;1.00;;;0.70;;
30147;SDS011;16960;49.404;8.248;2024-02-23T11:32:12;3.17;;;1.30;;
30147;SDS011;16960;49.404;8.248;2024-02-23T11:34:41;2.10;;;1.27;;
30147;SDS011;16960;49.404;8.248;2024-02-23T11:37:09;2.00;;;0.90;;
30147;SDS011;16960;49.404;8.248;2024-02-23T11:39:37;2.60;;;1.00;;
30147;SDS011;16960;49.404;8.248;2024-02-23T11:42:05;4.40;;;1.10;;
30147;SDS011;16960;49.404;8.248;2024-02-23T11:44:33;1.03;;;0.63;;
30147;SDS011;16960;49.404;8.248;2024-02-23T11:47:00;2.23;;;0.93;;
30147;SDS011;16960;49.404;8.248;2024-02-23T11:49:28;2.00;;;0.70;;
30147;SDS011;16960;49.404;8.248;2024-02-23T11:51:56;2.00;;;0.70;;
30147;SDS011;16960;49.404;8.248;2024-02-23T11:54:23;1.23;;;0.60;;
30147;SDS011;16960;49.404;8.248;2024-02-23T11:56:50;2.27;;;1.00;;
30147;SDS011;16960;49.404;8.248;2024-02-23T11:59:18;2.10;;;0.90;;
30147;SDS011;16960;49.404;8.248;2024-02-23T12:01:45;1.40;;;0.67;;
30147;SDS011;16960;49.404;8.248;2024-02-23T12:04:13;2.83;;;1.00;;
30147;SDS011;16960;49.404;8.248;2024-02-23T12:06:41;1.23;;;1.00;;
30147;SDS011;16960;49.404;8.248;2024-02-23T12:09:10;1.80;;;1.13;;
30147;SDS011;16960;49.404;8.248;2024-02-23T12:11:37;1.67;;;0.67;;
30147;SDS011;16960;49.404;8.248;2024-02-23T12:14:05;1.67;;;0.97;;
30147;SDS011;16960;49.404;8.248;2024-02-23T12:16:33;2.20;;;0.83;;
30147;SDS011;16960;49.404;8.248;2024-02-23T12:19:00;2.00;;;0.70;;
30147;SDS011;16960;49.404;8.248;2024-02-23T12:21:28;2.40;;;0.90;;
30147;SDS011;16960;49.404;8.248;2024-02-23T12:23:55;2.73;;;0.70;;
30147;SDS011;16960;49.404;8.248;2024-02-23T12:26:23;2.10;;;1.00;;
30147;SDS011;16960;49.404;8.248;2024-02-23T12:28:50;1.50;;;0.93;;
30147;SDS011;16960;49.404;8.248;2024-02-23T12:31:23;1.43;;;0.67;;
30147;SDS011;16960;49.404;8.248;2024-02-23T12:33:51;1.60;;;0.80;;
30147;SDS011;16960;49.404;8.248;2024-02-23T12:36:18;1.60;;;0.80;;
30147;SDS011;16960;49.404;8.248;2024-02-23T12:38:45;3.27;;;1.30;;
30147;SDS011;16960;49.404;8.248;2024-02-23T12:41:12;2.03;;;0.90;;
30147;SDS011;16960;49.404;8.248;2024-02-23T12:43:39;1.60;;;0.90;;
30147;SDS011;16960;49.404;8.248;2024-02-23T12:46:06;1.57;;;0.70;;
30147;SDS011;16960;49.404;8.248;2024-02-23T12:48:34;2.33;;;1.20;;
30147;SDS011;16960;49.404;8.248;2024-02-23T12:51:01;1.90;;;0.80;;
30147;SDS011;16960;49.404;8.248;2024-02-23T12:53:32;1.57;;;0.70;;
30147;SDS011;16960;49.404;8.248;2024-02-23T12:56:01;1.53;;;0.87;;
30147;SDS011;16960;49.404;8.248;2024-02-23T12:58:29;1.10;;;0.67;;
30147;SDS011;16960;49.404;8.248;2024-02-23T13:00:57;1.10;;;0.63;;
30147;SDS011;16960;49.404;8.248;2024-02-23T13:03:24;2.43;;;0.77;;
30147;SDS011;16960;49.404;8.248;2024-02-23T13:05:52;1.73;;;0.90;;
30147;SDS011;16960;49.404;8.248;2024-02-23T13:08:20;2.43;;;0.80;;
30147;SDS011;16960;49.404;8.248;2024-02-23T13:10:47;1.80;;;0.60;;
30147;SDS011;16960;49.404;8.248;2024-02-23T13:13:14;2.33;;;1.03;;
30147;SDS011;16960;49.404;8.248;2024-02-23T13:15:42;1.27;;;0.60;;
30147;SDS011;16960;49.404;8.248;2024-02-23T13:18:10;1.33;;;0.60;;
30147;SDS011;16960;49.404;8.248;2024-02-23T13:20:38;1.40;;;0.83;;
30147;SDS011;16960;49.404;8.248;2024-02-23T13:23:06;5.10;;;1.00;;
30147;SDS011;16960;49.404;8.248;2024-02-23T13:25:35;0.90;;;0.77;;
30147;SDS011;16960;49.404;8.248;2024-02-23T13:28:03;3.20;;;0.83;;
30147;SDS011;16960;49.404;8.248;2024-02-23T13:30:31;1.17;;;0.70;;
30147;SDS011;16960;49.404;8.248;2024-02-23T13:32:59;2.50;;;0.77;;
30147;SDS011;16960;49.404;8.248;2024-02-23T13:35:28;2.30;;;0.87;;
30147;SDS011;16960;49.404;8.248;2024-02-23T13:37:55;1.40;;;0.67;;
30147;SDS011;16960;49.404;8.248;2024-02-23T13:40:22;1.13;;;0.70;;
30147;SDS011;16960;49.404;8.248;2024-02-23T13:42:49;1.90;;;1.20;;
30147;SDS011;16960;49.404;8.248;2024-02-23T13:45:18;1.47;;;0.70;;
30147;SDS011;16960;49.404;8.248;2024-02-23T13:47:55;1.53;;;0.67;;
30147;SDS011;16960;49.404;8.248;2024-02-23T13:50:23;3.00;;;1.10;;
30147;SDS011;16960;49.404;8.248;2024-02-23T13:52:51;1.93;;;0.60;;
30147;SDS011;16960;49.404;8.248;2024-02-23T13:55:18;1.70;;;0.80;;
30147;SDS011;16960;49.404;8.248;2024-02-23T13:57:45;2.10;;;0.90;;
30147;SDS011;16960;49.404;8.248;2024-02-23T14:00:13;1.27;;;0.60;;
30147;SDS011;16960;49.404;8.248;2024-02-23T14:02:40;2.17;;;0.87;;
30147;SDS011;16960;49.404;8.248;2024-02-23T14:05:07;0.80;;;0.60;;
30147;SDS011;16960;49.404;8.248;2024-02-23T14:07:35;2.40;;;0.70;;
30147;SDS011;16960;49.404;8.248;2024-02-23T14:10:04;1.80;;;1.27;;
30147;SDS011;16960;49.404;8.248;2024-02-23T14:12:32;2.13;;;0.80;;
30147;SDS011;16960;49.404;8.248;2024-02-23T14:15:00;3.03;;;0.77;;
30147;SDS011;16960;49.404;8.248;2024-02-23T14:17:27;1.73;;;0.77;;
30147;SDS011;16960;49.404;8.248;2024-02-23T14:19:53;2.07;;;1.27;;
30147;SDS011;16960;49.404;8.248;2024-02-23T14:22:21;1.30;;;0.70;;
30147;SDS011;16960;49.404;8.248;2024-02-23T14:24:48;1.37;;;0.60;;
30147;SDS011;16960;49.404;8.248;2024-02-23T14:27:16;0.97;;;0.80;;
30147;SDS011;16960;49.404;8.248;2024-02-23T14:29:43;1.30;;;0.83;;
30147;SDS011;16960;49.404;8.248;2024-02-23T14:32:11;3.90;;;0.87;;
30147;SDS011;16960;49.404;8.248;2024-02-23T14:34:42;1.53;;;0.77;;
30147;SDS011;16960;49.404;8.248;2024-02-23T14:37:09;4.07;;;1.10;;
30147;SDS011;16960;49.404;8.248;2024-02-23T14:39:36;1.13;;;0.77;;
30147;SDS011;16960;49.404;8.248;2024-02-23T14:42:03;1.30;;;0.60;;
30147;SDS011;16960;49.404;8.248;2024-02-23T14:44:31;1.20;;;0.70;;
30147;SDS011;16960;49.404;8.248;2024-02-23T14:46:58;4.60;;;0.60;;
30147;SDS011;16960;49.404;8.248;2024-02-23T14:49:25;1.10;;;0.60;;